Trefriw, United Kingdom
Current Conditions -  °F | °C
As of 7:50 AM on Monday 24 Nov 2014 (Local Time) from EGOV Reporting Station
Broken Clouds Broken Clouds  
Wind Chill:   Ceiling: 22000
Heat Index:   Visibility: 6mi
Dew Point:   Wind: 8mph
Humidity: 71%   Direction: 250°WSW
Pressure: 30.24"   Gusts: NA
Location:  53.13°N, 3.81°W
Report Text: EGOV 240750Z 25007KT 9999 FEW030 BKN220 07/02 Q1024 BLU NOSIG
Loading
Personal Weather Stations






























Interactive Weather Map New forecast layout! Learn more

10-Day Weather Forecast

Advertisements
Track Severe Weather on mobile